Time;durP1;ratioP1;P1;durP2;ratioP2;P2;SDS_P1;SDS_P2;PMS_P1;PMS_P2;Temp;Humidity;BMP_temperature;BMP_pressure;BME280_temperature;BME280_humidity;BME280_pressure;Samples;Min_cycle;Max_cycle;Signal;HPM_P1;HPM_P2
2021/07/15 00:00:33;;;;;;;;;;;21.90;58.30;;;;;;491531;242;1061;-70
2021/07/15 00:02:35;;;;;;;;;;;21.90;58.20;;;;;;491514;242;1154;-70
2021/07/15 00:04:36;;;;;;;;;;;21.80;58.20;;;;;;491627;241;973;-70
2021/07/15 00:06:37;;;;;;;;;;;21.90;58.20;;;;;;491535;241;1088;-70
2021/07/15 00:08:39;;;;;;;;;;;21.90;58.20;;;;;;491549;242;2137;-70
2021/07/15 00:10:40;;;;;;;;;;;21.90;58.10;;;;;;491591;241;1067;-70
2021/07/15 00:12:41;;;;;;;;;;;21.80;58.10;;;;;;491571;242;1090;-70
2021/07/15 00:14:43;;;;;;;;;;;21.80;58.20;;;;;;491581;242;1040;-70
2021/07/15 00:16:44;;;;;;;;;;;21.80;58.20;;;;;;491601;238;1211;-70
2021/07/15 00:18:46;;;;;;;;;;;21.90;58.00;;;;;;491655;241;1173;-70
2021/07/15 00:20:47;;;;;;;;;;;21.90;57.80;;;;;;491612;241;1176;-70
2021/07/15 00:22:48;;;;;;;;;;;21.90;57.80;;;;;;491567;241;1070;-70
2021/07/15 00:24:50;;;;;;;;;;;21.90;57.90;;;;;;491620;242;1043;-70
2021/07/15 00:26:52;;;;;;;;;;;21.90;57.90;;;;;;491557;241;1639;-70
2021/07/15 00:28:52;;;;;;;;;;;21.90;57.80;;;;;;491554;237;2140;-70
2021/07/15 00:30:54;;;;;;;;;;;21.90;57.90;;;;;;491597;241;1044;-70
2021/07/15 00:32:55;;;;;;;;;;;21.90;57.70;;;;;;491580;242;1136;-70
2021/07/15 00:34:56;;;;;;;;;;;21.90;57.80;;;;;;491566;242;1094;-70
2021/07/15 00:36:58;;;;;;;;;;;21.90;57.70;;;;;;491615;241;1022;-70
2021/07/15 00:38:59;;;;;;;;;;;21.90;57.60;;;;;;491619;241;958;-70
2021/07/15 00:41:00;;;;;;;;;;;21.90;57.80;;;;;;491576;241;1042;-70
2021/07/15 00:43:02;;;;;;;;;;;21.90;57.70;;;;;;491537;242;1032;-70
2021/07/15 00:45:03;;;;;;;;;;;21.90;57.70;;;;;;491600;241;1100;-70
2021/07/15 00:47:04;;;;;;;;;;;21.90;57.70;;;;;;491454;241;1083;-70
2021/07/15 00:49:06;;;;;;;;;;;22.00;57.60;;;;;;491544;241;2179;-70
2021/07/15 00:51:07;;;;;;;;;;;22.00;57.50;;;;;;491470;241;1181;-70
2021/07/15 00:53:09;;;;;;;;;;;22.00;57.50;;;;;;491585;242;1050;-70
2021/07/15 00:55:10;;;;;;;;;;;21.90;57.50;;;;;;491626;241;1021;-70
2021/07/15 00:57:11;;;;;;;;;;;21.90;57.50;;;;;;491493;241;1224;-70
2021/07/15 00:59:13;;;;;;;;;;;21.90;57.50;;;;;;491581;242;1116;-70
2021/07/15 01:01:14;;;;;;;;;;;21.90;57.50;;;;;;491545;238;1231;-70
2021/07/15 01:03:15;;;;;;;;;;;21.90;57.50;;;;;;491517;241;1085;-70
2021/07/15 01:05:17;;;;;;;;;;;22.00;57.50;;;;;;491560;241;1044;-70
2021/07/15 01:07:18;;;;;;;;;;;21.90;57.50;;;;;;491585;241;1231;-69
2021/07/15 01:09:19;;;;;;;;;;;21.90;57.50;;;;;;491629;241;2134;-69
2021/07/15 01:11:21;;;;;;;;;;;21.90;57.50;;;;;;491501;238;1191;-70
2021/07/15 01:13:22;;;;;;;;;;;21.90;57.50;;;;;;491553;242;1061;-70
2021/07/15 01:15:24;;;;;;;;;;;21.90;57.50;;;;;;491546;241;1051;-70
2021/07/15 01:17:25;;;;;;;;;;;21.90;57.50;;;;;;491563;242;1073;-70
2021/07/15 01:19:26;;;;;;;;;;;21.90;57.40;;;;;;491660;241;1187;-70
2021/07/15 01:21:27;;;;;;;;;;;21.90;57.50;;;;;;491542;242;1208;-70
2021/07/15 01:23:29;;;;;;;;;;;21.90;57.40;;;;;;491637;241;1059;-70
2021/07/15 01:25:30;;;;;;;;;;;21.90;57.40;;;;;;491577;242;1038;-70
2021/07/15 01:27:31;;;;;;;;;;;21.90;57.50;;;;;;491495;241;1061;-70
2021/07/15 01:29:33;;;;;;;;;;;21.90;57.50;;;;;;491669;241;2117;-70
2021/07/15 01:31:34;;;;;;;;;;;21.90;57.40;;;;;;491529;238;1303;-70
2021/07/15 01:33:36;;;;;;;;;;;22.00;57.40;;;;;;491587;241;1139;-70
2021/07/15 01:35:37;;;;;;;;;;;22.00;57.30;;;;;;491584;237;1280;-70
2021/07/15 01:37:38;;;;;;;;;;;21.90;57.30;;;;;;491552;241;1175;-70
2021/07/15 01:39:39;;;;;;;;;;;21.90;57.50;;;;;;491542;241;1039;-70
2021/07/15 01:41:41;;;;;;;;;;;21.90;57.60;;;;;;491532;242;1153;-70
2021/07/15 01:43:42;;;;;;;;;;;21.90;57.50;;;;;;491580;241;1051;-70
2021/07/15 01:45:43;;;;;;;;;;;21.90;57.40;;;;;;491576;242;973;-70
2021/07/15 01:47:45;;;;;;;;;;;22.00;57.40;;;;;;491624;241;1081;-70
2021/07/15 01:49:46;;;;;;;;;;;21.90;57.30;;;;;;491607;242;2196;-69
2021/07/15 01:51:48;;;;;;;;;;;22.00;57.30;;;;;;491481;242;1064;-70
2021/07/15 01:53:49;;;;;;;;;;;21.90;57.30;;;;;;491647;241;1062;-70
2021/07/15 01:55:50;;;;;;;;;;;21.90;57.30;;;;;;491517;241;1115;-70
2021/07/15 01:57:52;;;;;;;;;;;21.90;57.60;;;;;;491478;242;1094;-70
2021/07/15 01:59:53;;;;;;;;;;;21.90;57.60;;;;;;491573;241;1214;-70
2021/07/15 02:01:54;;;;;;;;;;;21.90;57.60;;;;;;491491;241;1285;-70
2021/07/15 02:03:56;;;;;;;;;;;21.90;57.40;;;;;;491510;242;1059;-70
2021/07/15 02:05:57;;;;;;;;;;;21.90;57.40;;;;;;491528;242;1178;-70
2021/07/15 02:07:58;;;;;;;;;;;21.90;57.50;;;;;;491479;241;2121;-70
2021/07/15 02:10:00;;;;;;;;;;;21.90;57.50;;;;;;491440;243;1233;-70
2021/07/15 02:12:01;;;;;;;;;;;21.90;57.60;;;;;;491389;241;1194;-70
2021/07/15 02:14:02;;;;;;;;;;;21.90;57.60;;;;;;491518;241;1122;-70
2021/07/15 02:16:04;;;;;;;;;;;21.90;57.50;;;;;;491445;241;1332;-70
2021/07/15 02:18:05;;;;;;;;;;;22.00;57.40;;;;;;491568;241;1139;-70
2021/07/15 02:20:06;;;;;;;;;;;21.90;57.50;;;;;;491633;241;1067;-70
2021/07/15 02:22:07;;;;;;;;;;;21.90;57.50;;;;;;491427;241;1147;-70
2021/07/15 02:24:09;;;;;;;;;;;21.90;57.60;;;;;;491548;242;1041;-70
2021/07/15 02:26:10;;;;;;;;;;;21.90;57.60;;;;;;491536;241;1344;-70
2021/07/15 02:28:11;;;;;;;;;;;21.90;57.60;;;;;;491626;241;2140;-70
2021/07/15 02:30:13;;;;;;;;;;;21.90;57.50;;;;;;491593;241;1080;-70
2021/07/15 02:32:14;;;;;;;;;;;21.90;57.50;;;;;;491572;241;1218;-70
2021/07/15 02:34:15;;;;;;;;;;;21.90;57.50;;;;;;491605;241;1172;-70
2021/07/15 02:36:17;;;;;;;;;;;21.90;57.60;;;;;;491545;242;1192;-70
2021/07/15 02:38:18;;;;;;;;;;;21.90;57.60;;;;;;491580;241;1079;-70
2021/07/15 02:40:19;;;;;;;;;;;21.90;57.60;;;;;;491587;241;1061;-70
2021/07/15 02:42:21;;;;;;;;;;;21.90;57.60;;;;;;491505;241;1120;-70
2021/07/15 02:44:22;;;;;;;;;;;21.90;57.70;;;;;;491648;241;986;-70
2021/07/15 02:46:23;;;;;;;;;;;21.90;57.60;;;;;;491536;242;1463;-70
2021/07/15 02:48:25;;;;;;;;;;;21.90;57.70;;;;;;491452;242;2132;-70
2021/07/15 02:50:26;;;;;;;;;;;21.80;57.80;;;;;;491533;242;1166;-70
2021/07/15 02:52:27;;;;;;;;;;;21.80;57.80;;;;;;491530;241;1025;-70
2021/07/15 02:54:29;;;;;;;;;;;21.90;57.80;;;;;;491611;241;1037;-70
2021/07/15 02:56:30;;;;;;;;;;;21.80;57.80;;;;;;491555;238;1218;-70
2021/07/15 02:58:31;;;;;;;;;;;21.90;57.80;;;;;;491545;242;1199;-70
2021/07/15 03:00:33;;;;;;;;;;;21.90;57.70;;;;;;491585;241;1056;-70
2021/07/15 03:02:34;;;;;;;;;;;21.90;57.60;;;;;;491547;241;1239;-70
2021/07/15 03:04:36;;;;;;;;;;;21.90;57.60;;;;;;491478;241;1154;-70
2021/07/15 03:06:37;;;;;;;;;;;21.80;57.70;;;;;;491559;241;1359;-70
2021/07/15 03:08:38;;;;;;;;;;;21.80;57.80;;;;;;491578;241;2139;-70
2021/07/15 03:10:40;;;;;;;;;;;21.90;57.70;;;;;;491537;242;1081;-70
2021/07/15 03:12:41;;;;;;;;;;;21.90;57.50;;;;;;491623;241;1162;-70
2021/07/15 03:14:42;;;;;;;;;;;21.90;57.50;;;;;;491453;241;1039;-70
2021/07/15 03:16:44;;;;;;;;;;;21.90;57.40;;;;;;491462;242;1262;-70
2021/07/15 03:18:45;;;;;;;;;;;21.90;57.50;;;;;;491548;241;970;-70
2021/07/15 03:20:46;;;;;;;;;;;21.80;57.60;;;;;;491635;241;1406;-70
2021/07/15 03:22:47;;;;;;;;;;;21.80;57.70;;;;;;491537;241;1072;-70
2021/07/15 03:24:49;;;;;;;;;;;21.80;57.60;;;;;;491578;242;1074;-70
2021/07/15 03:26:50;;;;;;;;;;;21.80;57.60;;;;;;491410;241;1221;-70
2021/07/15 03:28:51;;;;;;;;;;;21.80;57.50;;;;;;491423;242;2136;-70
2021/07/15 03:30:53;;;;;;;;;;;21.80;57.50;;;;;;491477;242;1129;-70
2021/07/15 03:32:55;;;;;;;;;;;21.80;57.50;;;;;;491631;241;1168;-70
2021/07/15 03:34:55;;;;;;;;;;;21.80;57.40;;;;;;491617;237;1322;-70
2021/07/15 03:36:57;;;;;;;;;;;21.80;57.60;;;;;;491484;241;1208;-70
2021/07/15 03:38:58;;;;;;;;;;;21.80;57.60;;;;;;491574;241;1116;-70
2021/07/15 03:40:59;;;;;;;;;;;21.80;57.60;;;;;;491485;241;1189;-70
2021/07/15 03:43:01;;;;;;;;;;;21.80;57.50;;;;;;491537;242;1172;-70
2021/07/15 03:45:02;;;;;;;;;;;21.80;57.60;;;;;;491553;241;1195;-70
2021/07/15 03:47:03;;;;;;;;;;;21.70;57.70;;;;;;491496;241;1231;-70
2021/07/15 03:49:05;;;;;;;;;;;21.60;57.80;;;;;;491575;241;2212;-70
2021/07/15 03:51:06;;;;;;;;;;;21.60;58.00;;;;;;491510;241;1158;-70
2021/07/15 03:53:07;;;;;;;;;;;21.60;58.00;;;;;;491481;241;1148;-70
2021/07/15 03:55:09;;;;;;;;;;;21.70;57.90;;;;;;491461;241;1149;-70
2021/07/15 03:57:10;;;;;;;;;;;21.70;57.70;;;;;;491396;242;1155;-70
2021/07/15 03:59:11;;;;;;;;;;;21.70;57.80;;;;;;491543;242;1077;-70
2021/07/15 04:01:13;;;;;;;;;;;21.70;57.80;;;;;;491557;241;1043;-70
2021/07/15 04:03:14;;;;;;;;;;;21.70;57.80;;;;;;491634;241;1025;-70
2021/07/15 04:05:15;;;;;;;;;;;21.60;57.80;;;;;;491539;241;1168;-70
2021/07/15 04:07:17;;;;;;;;;;;21.70;57.80;;;;;;491508;242;1148;-69
2021/07/15 04:09:18;;;;;;;;;;;21.70;57.80;;;;;;491529;242;2141;-69
2021/07/15 04:11:20;;;;;;;;;;;21.70;57.70;;;;;;491436;242;1264;-70
2021/07/15 04:13:21;;;;;;;;;;;21.70;57.70;;;;;;491517;241;1018;-70
2021/07/15 04:15:22;;;;;;;;;;;21.70;57.70;;;;;;491537;241;1054;-69
2021/07/15 04:17:24;;;;;;;;;;;21.60;57.80;;;;;;491464;242;1205;-69
2021/07/15 04:19:25;;;;;;;;;;;21.60;57.80;;;;;;491557;241;1080;-69
2021/07/15 04:21:26;;;;;;;;;;;21.60;58.00;;;;;;491498;241;1271;-69
2021/07/15 04:23:28;;;;;;;;;;;21.70;57.90;;;;;;491591;241;1105;-69
2021/07/15 04:25:29;;;;;;;;;;;21.70;57.70;;;;;;491449;241;1022;-69
2021/07/15 04:27:30;;;;;;;;;;;21.70;57.70;;;;;;491384;241;1121;-69
2021/07/15 04:29:31;;;;;;;;;;;21.70;57.70;;;;;;491332;241;2132;-69
2021/07/15 04:31:33;;;;;;;;;;;21.60;57.70;;;;;;491372;242;1159;-69
2021/07/15 04:33:34;;;;;;;;;;;21.60;57.80;;;;;;491561;241;1076;-69
2021/07/15 04:35:35;;;;;;;;;;;21.60;57.80;;;;;;491469;241;1120;-69
2021/07/15 04:37:37;;;;;;;;;;;21.60;57.80;;;;;;491496;241;1227;-69
2021/07/15 04:39:38;;;;;;;;;;;21.70;57.70;;;;;;491386;241;1111;-69
2021/07/15 04:41:40;;;;;;;;;;;21.70;57.70;;;;;;491266;238;1535;-69
2021/07/15 04:43:41;;;;;;;;;;;21.70;57.60;;;;;;491350;241;1039;-69
2021/07/15 04:45:44;;;;;;;;;;;21.70;57.70;;;;;;491304;242;1199;-69
2021/07/15 04:47:44;;;;;;;;;;;21.60;57.70;;;;;;491458;237;1331;-69
2021/07/15 04:49:45;;;;;;;;;;;21.60;57.80;;;;;;491405;241;2140;-70
2021/07/15 04:51:46;;;;;;;;;;;21.60;57.80;;;;;;491456;241;1165;-70
2021/07/15 04:53:48;;;;;;;;;;;21.70;57.80;;;;;;491236;241;1037;-70
2021/07/15 04:55:49;;;;;;;;;;;21.60;57.80;;;;;;491255;241;1084;-70
2021/07/15 04:57:50;;;;;;;;;;;21.60;57.90;;;;;;491300;241;1145;-69
2021/07/15 04:59:52;;;;;;;;;;;21.60;57.90;;;;;;491397;242;1047;-70
2021/07/15 05:01:53;;;;;;;;;;;21.60;58.00;;;;;;491373;241;1153;-69
2021/07/15 05:03:54;;;;;;;;;;;21.60;58.10;;;;;;491365;241;1040;-69
2021/07/15 05:05:56;;;;;;;;;;;21.60;58.10;;;;;;491212;242;1195;-70
2021/07/15 05:07:57;;;;;;;;;;;21.60;58.00;;;;;;491269;241;1220;-69
2021/07/15 05:09:58;;;;;;;;;;;21.60;58.00;;;;;;491319;241;2141;-70
2021/07/15 05:12:00;;;;;;;;;;;21.60;58.00;;;;;;491282;241;1148;-70
2021/07/15 05:14:01;;;;;;;;;;;21.60;57.90;;;;;;491382;241;984;-70
2021/07/15 05:16:02;;;;;;;;;;;21.60;58.00;;;;;;491267;242;1190;-70
2021/07/15 05:18:04;;;;;;;;;;;21.60;58.00;;;;;;491232;241;1115;-70
2021/07/15 05:20:05;;;;;;;;;;;21.60;58.00;;;;;;491242;241;1105;-70
2021/07/15 05:22:06;;;;;;;;;;;21.60;57.90;;;;;;491242;241;1313;-70
2021/07/15 05:24:08;;;;;;;;;;;21.60;57.80;;;;;;491254;241;1112;-70
2021/07/15 05:26:09;;;;;;;;;;;21.60;57.80;;;;;;491234;241;1122;-70
2021/07/15 05:28:10;;;;;;;;;;;21.60;57.80;;;;;;491272;242;1043;-70
2021/07/15 05:30:11;;;;;;;;;;;21.60;57.80;;;;;;491109;241;2179;-70
2021/07/15 05:32:13;;;;;;;;;;;21.60;57.80;;;;;;491216;242;1228;-70
2021/07/15 05:34:17;;;;;;;;;;;21.60;57.70;;;;;;491271;241;1075;-66
2021/07/15 05:36:16;;;;;;;;;;;21.60;57.60;;;;;;491414;237;1981;-66
2021/07/15 05:38:17;;;;;;;;;;;21.70;57.60;;;;;;491175;241;1196;-66
2021/07/15 05:40:18;;;;;;;;;;;21.70;57.60;;;;;;491079;242;1043;-66
2021/07/15 05:42:20;;;;;;;;;;;21.70;57.60;;;;;;491006;241;1147;-70
2021/07/15 05:44:21;;;;;;;;;;;21.60;57.80;;;;;;491056;242;1100;-70
2021/07/15 05:46:22;;;;;;;;;;;21.60;57.80;;;;;;490992;241;1191;-70
2021/07/15 05:48:24;;;;;;;;;;;21.60;57.70;;;;;;491157;241;1100;-70
2021/07/15 05:50:25;;;;;;;;;;;21.70;57.80;;;;;;491098;242;2160;-70
2021/07/15 05:52:26;;;;;;;;;;;21.70;57.70;;;;;;491082;241;1199;-70
2021/07/15 05:54:28;;;;;;;;;;;21.70;57.70;;;;;;491015;242;1038;-70
2021/07/15 05:56:29;;;;;;;;;;;21.70;57.70;;;;;;491101;241;1103;-70
2021/07/15 05:58:30;;;;;;;;;;;21.70;57.70;;;;;;491032;241;1044;-70
2021/07/15 06:00:32;;;;;;;;;;;21.70;57.90;;;;;;491041;241;1125;-70
2021/07/15 06:02:33;;;;;;;;;;;21.60;58.00;;;;;;491163;241;1033;-70
2021/07/15 06:04:34;;;;;;;;;;;21.70;58.00;;;;;;491119;242;1040;-70
2021/07/15 06:06:36;;;;;;;;;;;21.60;58.10;;;;;;490993;241;1324;-70
2021/07/15 06:08:37;;;;;;;;;;;21.60;58.30;;;;;;490963;241;1101;-70
2021/07/15 06:10:38;;;;;;;;;;;21.60;58.30;;;;;;490884;242;2183;-70
2021/07/15 06:12:41;;;;;;;;;;;21.60;58.30;;;;;;490813;241;1214;-70
2021/07/15 06:14:41;;;;;;;;;;;21.70;58.30;;;;;;490917;237;1562;-70
2021/07/15 06:16:42;;;;;;;;;;;21.70;58.30;;;;;;490924;241;1209;-70
2021/07/15 06:18:44;;;;;;;;;;;21.70;58.30;;;;;;490951;241;1511;-70
2021/07/15 06:20:45;;;;;;;;;;;21.70;58.30;;;;;;491014;242;1148;-70
2021/07/15 06:22:46;;;;;;;;;;;21.70;58.30;;;;;;491073;242;1140;-70
2021/07/15 06:24:48;;;;;;;;;;;21.70;58.40;;;;;;490993;241;1057;-70
2021/07/15 06:26:49;;;;;;;;;;;21.60;58.40;;;;;;490947;241;1228;-70
2021/07/15 06:28:50;;;;;;;;;;;21.60;58.40;;;;;;490949;241;1093;-70
2021/07/15 06:30:51;;;;;;;;;;;21.70;58.50;;;;;;490831;242;2171;-70
2021/07/15 06:32:54;;;;;;;;;;;21.60;58.50;;;;;;490758;242;1035;-70
2021/07/15 06:34:54;;;;;;;;;;;21.60;58.50;;;;;;490860;237;1518;-70
2021/07/15 06:36:56;;;;;;;;;;;21.70;58.40;;;;;;490872;242;1326;-70
2021/07/15 06:38:57;;;;;;;;;;;21.70;58.40;;;;;;490969;241;1128;-70
2021/07/15 06:40:58;;;;;;;;;;;21.70;58.50;;;;;;490845;242;1273;-70
2021/07/15 06:43:00;;;;;;;;;;;21.60;58.40;;;;;;490782;241;1320;-70
2021/07/15 06:45:01;;;;;;;;;;;21.60;58.50;;;;;;490797;242;1081;-70
2021/07/15 06:47:04;;;;;;;;;;;21.60;58.50;;;;;;490828;241;1319;-70
2021/07/15 06:49:04;;;;;;;;;;;21.60;58.50;;;;;;491023;237;1245;-70
2021/07/15 06:51:06;;;;;;;;;;;21.60;58.50;;;;;;490848;241;2132;-70
2021/07/15 06:53:07;;;;;;;;;;;21.70;58.40;;;;;;490747;242;1210;-70
2021/07/15 06:55:08;;;;;;;;;;;21.70;58.30;;;;;;490503;241;1083;-70
2021/07/15 06:57:10;;;;;;;;;;;21.70;58.30;;;;;;490477;241;1177;-70
2021/07/15 06:59:11;;;;;;;;;;;21.60;58.30;;;;;;490615;242;1086;-70
2021/07/15 07:01:12;;;;;;;;;;;21.60;58.30;;;;;;490480;242;1131;-70
2021/07/15 07:03:14;;;;;;;;;;;21.60;58.30;;;;;;490724;241;1056;-70
2021/07/15 07:05:15;;;;;;;;;;;21.60;58.30;;;;;;490679;237;1271;-70
2021/07/15 07:07:16;;;;;;;;;;;21.70;58.20;;;;;;490699;241;1297;-70
2021/07/15 07:09:18;;;;;;;;;;;21.70;58.10;;;;;;490826;241;1043;-70
2021/07/15 07:11:19;;;;;;;;;;;21.60;58.10;;;;;;490733;242;2180;-70
2021/07/15 07:13:20;;;;;;;;;;;21.60;58.20;;;;;;490770;241;1091;-70
2021/07/15 07:15:22;;;;;;;;;;;21.60;58.20;;;;;;490714;242;1116;-70
2021/07/15 07:17:23;;;;;;;;;;;21.60;58.40;;;;;;490916;242;1119;-70
2021/07/15 07:19:24;;;;;;;;;;;21.70;58.40;;;;;;490882;238;1217;-70
2021/07/15 07:21:26;;;;;;;;;;;21.70;58.30;;;;;;490577;241;1308;-70
2021/07/15 07:23:27;;;;;;;;;;;21.70;58.40;;;;;;490978;242;1078;-70
2021/07/15 07:25:29;;;;;;;;;;;21.60;58.40;;;;;;490369;241;1095;-70
2021/07/15 07:27:31;;;;;;;;;;;21.60;58.50;;;;;;490492;237;1323;-70
2021/07/15 07:29:31;;;;;;;;;;;21.60;58.40;;;;;;490390;237;1303;-70
2021/07/15 07:31:32;;;;;;;;;;;21.60;58.60;;;;;;490234;238;2210;-70
2021/07/15 07:33:33;;;;;;;;;;;21.60;58.60;;;;;;490470;241;1138;-70
2021/07/15 07:35:35;;;;;;;;;;;21.70;58.60;;;;;;490386;242;1292;-70
2021/07/15 07:37:36;;;;;;;;;;;21.70;58.50;;;;;;490775;242;1190;-70
2021/07/15 07:39:37;;;;;;;;;;;21.70;58.60;;;;;;491215;241;873;-70
2021/07/15 07:41:39;;;;;;;;;;;21.70;58.60;;;;;;490732;242;1081;-70
2021/07/15 07:43:40;;;;;;;;;;;21.60;58.60;;;;;;490772;242;1029;-70
2021/07/15 07:45:41;;;;;;;;;;;21.70;58.60;;;;;;491295;241;1090;-70
2021/07/15 07:47:43;;;;;;;;;;;21.60;58.60;;;;;;490795;241;1052;-70
2021/07/15 07:49:44;;;;;;;;;;;21.70;58.60;;;;;;491347;241;1220;-70
2021/07/15 07:51:45;;;;;;;;;;;21.70;58.60;;;;;;490961;241;2187;-70
2021/07/15 07:53:47;;;;;;;;;;;21.70;58.50;;;;;;490915;241;1186;-70
2021/07/15 07:55:48;;;;;;;;;;;21.70;58.50;;;;;;491286;241;1188;-70
2021/07/15 07:57:49;;;;;;;;;;;21.60;58.40;;;;;;490876;241;1423;-72
2021/07/15 07:59:50;;;;;;;;;;;21.70;58.50;;;;;;491255;241;1041;-70
2021/07/15 08:01:52;;;;;;;;;;;21.60;58.50;;;;;;490332;241;1111;-70
2021/07/15 08:03:54;;;;;;;;;;;21.60;58.50;;;;;;490461;241;1192;-70
2021/07/15 08:05:55;;;;;;;;;;;21.60;58.60;;;;;;490417;237;1274;-70
2021/07/15 08:07:56;;;;;;;;;;;21.60;58.60;;;;;;490536;237;1313;-70
2021/07/15 08:09:57;;;;;;;;;;;21.60;58.60;;;;;;490607;242;1137;-70
2021/07/15 08:11:59;;;;;;;;;;;21.60;58.60;;;;;;490444;242;2188;-70
2021/07/15 08:14:00;;;;;;;;;;;21.60;58.60;;;;;;490454;241;1113;-70
2021/07/15 08:16:02;;;;;;;;;;;21.60;58.60;;;;;;490378;241;1317;-70
2021/07/15 08:18:03;;;;;;;;;;;21.60;58.70;;;;;;490630;242;1119;-70
2021/07/15 08:20:04;;;;;;;;;;;21.60;58.70;;;;;;490641;241;1124;-70
2021/07/15 08:22:06;;;;;;;;;;;21.60;58.60;;;;;;490616;241;1196;-70
2021/07/15 08:24:07;;;;;;;;;;;21.60;58.60;;;;;;490449;241;1133;-70
2021/07/15 08:26:10;;;;;;;;;;;21.60;58.60;;;;;;490204;241;1124;-70
2021/07/15 08:28:10;;;;;;;;;;;21.60;58.70;;;;;;490372;237;1581;-70
2021/07/15 08:30:11;;;;;;;;;;;21.60;58.80;;;;;;490333;241;2171;-70
2021/07/15 08:32:13;;;;;;;;;;;21.60;58.80;;;;;;490353;241;1106;-70
2021/07/15 08:34:14;;;;;;;;;;;21.60;58.80;;;;;;490371;242;1102;-70
2021/07/15 08:36:15;;;;;;;;;;;21.60;58.80;;;;;;490286;241;1219;-70
2021/07/15 08:38:19;;;;;;;;;;;21.60;58.80;;;;;;490628;241;1217;-70
2021/07/15 08:40:18;;;;;;;;;;;21.70;58.70;;;;;;490656;237;1402;-70
2021/07/15 08:42:19;;;;;;;;;;;21.70;58.80;;;;;;490538;241;1376;-70
2021/07/15 08:44:21;;;;;;;;;;;21.60;58.80;;;;;;490609;241;1153;-70
2021/07/15 08:46:22;;;;;;;;;;;21.60;58.90;;;;;;490519;238;1280;-70
2021/07/15 08:48:23;;;;;;;;;;;21.60;58.80;;;;;;490564;242;1073;-70
2021/07/15 08:50:25;;;;;;;;;;;21.60;58.90;;;;;;490988;241;2176;-70
2021/07/15 08:52:26;;;;;;;;;;;21.60;59.00;;;;;;490720;241;1146;-70
2021/07/15 08:54:34;;;;;;;;;;;21.60;59.00;;;;;;490509;242;1107;-70
2021/07/15 08:56:37;;;;;;;;;;;21.60;59.00;;;;;;490524;237;1493;-70
2021/07/15 08:58:39;;;;;;;;;;;21.60;59.00;;;;;;490419;242;1085;-70
2021/07/15 09:00:40;;;;;;;;;;;21.60;58.90;;;;;;490489;241;1431;-70
2021/07/15 09:02:42;;;;;;;;;;;21.70;59.00;;;;;;490570;242;1190;-70
2021/07/15 09:04:43;;;;;;;;;;;21.60;58.90;;;;;;490579;241;1135;-70
2021/07/15 09:06:44;;;;;;;;;;;21.60;59.10;;;;;;490271;242;1198;-70
2021/07/15 09:08:46;;;;;;;;;;;21.70;59.10;;;;;;490259;241;1182;-70
2021/07/15 09:10:47;;;;;;;;;;;21.70;59.10;;;;;;490061;242;2197;-70
2021/07/15 09:12:48;;;;;;;;;;;21.70;59.10;;;;;;490198;242;1140;-70
2021/07/15 09:14:49;;;;;;;;;;;21.70;59.00;;;;;;490239;242;1049;-70
2021/07/15 09:16:51;;;;;;;;;;;21.70;59.10;;;;;;490159;242;1198;-70
2021/07/15 09:18:52;;;;;;;;;;;21.70;59.10;;;;;;490260;241;1175;-70
2021/07/15 09:20:53;;;;;;;;;;;21.70;59.20;;;;;;490310;241;1332;-70
2021/07/15 09:22:55;;;;;;;;;;;21.70;59.30;;;;;;491285;241;1054;-70
2021/07/15 09:24:56;;;;;;;;;;;21.70;59.30;;;;;;490835;241;1467;-70
2021/07/15 09:26:57;;;;;;;;;;;21.80;59.30;;;;;;490438;239;1170;-70
2021/07/15 09:28:59;;;;;;;;;;;21.80;59.10;;;;;;490892;241;1150;-70
2021/07/15 09:31:00;;;;;;;;;;;21.80;59.10;;;;;;490248;242;2200;-70
2021/07/15 09:33:01;;;;;;;;;;;21.80;59.20;;;;;;490908;241;1018;-70
2021/07/15 09:35:03;;;;;;;;;;;21.80;59.30;;;;;;490145;242;745;-70
2021/07/15 09:37:04;;;;;;;;;;;21.70;59.20;;;;;;490585;241;1187;-70
2021/07/15 09:39:05;;;;;;;;;;;21.80;59.40;;;;;;490428;241;1046;-70
2021/07/15 09:41:07;;;;;;;;;;;21.70;59.40;;;;;;490684;241;1369;-70
2021/07/15 09:43:08;;;;;;;;;;;21.80;59.40;;;;;;490283;242;1045;-70
2021/07/15 09:45:09;;;;;;;;;;;21.80;59.40;;;;;;490676;241;748;-70
2021/07/15 09:47:11;;;;;;;;;;;21.80;59.40;;;;;;490564;241;1046;-70
2021/07/15 09:49:12;;;;;;;;;;;21.80;59.40;;;;;;490888;241;774;-70
2021/07/15 09:51:13;;;;;;;;;;;21.70;59.30;;;;;;490392;242;2211;-70
2021/07/15 09:53:15;;;;;;;;;;;21.70;59.40;;;;;;490546;242;846;-70
2021/07/15 09:55:16;;;;;;;;;;;21.70;59.40;;;;;;490435;241;1084;-70
2021/07/15 09:57:17;;;;;;;;;;;21.70;59.40;;;;;;490771;241;1375;-70
2021/07/15 09:59:18;;;;;;;;;;;21.80;59.40;;;;;;491035;241;756;-70
2021/07/15 10:01:20;;;;;;;;;;;21.80;59.40;;;;;;490483;242;844;-70
2021/07/15 10:03:21;;;;;;;;;;;21.70;59.40;;;;;;490967;241;766;-70
2021/07/15 10:05:23;;;;;;;;;;;21.70;59.40;;;;;;490916;241;641;-70
2021/07/15 10:07:24;;;;;;;;;;;21.70;59.40;;;;;;490810;241;798;-70
2021/07/15 10:09:25;;;;;;;;;;;21.70;59.50;;;;;;490605;241;1078;-70
2021/07/15 10:11:28;;;;;;;;;;;21.70;59.50;;;;;;490717;241;2175;-70
2021/07/15 10:13:28;;;;;;;;;;;21.70;59.50;;;;;;490703;237;1410;-70
2021/07/15 10:15:29;;;;;;;;;;;21.70;59.60;;;;;;490947;242;1117;-70
2021/07/15 10:17:31;;;;;;;;;;;21.70;59.50;;;;;;490717;242;1130;-70
2021/07/15 10:19:32;;;;;;;;;;;21.70;59.50;;;;;;491483;241;866;-70
2021/07/15 10:21:33;;;;;;;;;;;21.60;59.50;;;;;;490908;242;1043;-70
2021/07/15 10:23:34;;;;;;;;;;;21.60;59.70;;;;;;491013;242;881;-70
2021/07/15 10:25:36;;;;;;;;;;;21.60;59.70;;;;;;490919;242;1124;-70
2021/07/15 10:27:38;;;;;;;;;;;21.70;59.60;;;;;;491506;241;1045;-70
2021/07/15 10:29:39;;;;;;;;;;;21.80;59.50;;;;;;491475;241;875;-70
2021/07/15 10:31:40;;;;;;;;;;;21.80;59.30;;;;;;491268;241;2191;-70
2021/07/15 10:33:42;;;;;;;;;;;21.80;59.30;;;;;;490895;242;854;-70
2021/07/15 10:35:43;;;;;;;;;;;21.80;59.30;;;;;;491275;241;918;-70
2021/07/15 10:37:44;;;;;;;;;;;21.80;59.40;;;;;;491056;242;1091;-70
2021/07/15 10:39:46;;;;;;;;;;;21.80;59.50;;;;;;490913;241;1124;-70
2021/07/15 10:41:48;;;;;;;;;;;21.80;59.40;;;;;;490574;241;1150;-70
2021/07/15 10:43:48;;;;;;;;;;;21.80;59.40;;;;;;490575;237;1455;-70
2021/07/15 10:45:50;;;;;;;;;;;21.80;59.40;;;;;;490712;241;1246;-70
2021/07/15 10:47:55;;;;;;;;;;;21.80;59.50;;;;;;490898;237;1272;-70
2021/07/15 10:49:52;;;;;;;;;;;21.80;59.40;;;;;;491528;237;1242;-70
2021/07/15 10:51:54;;;;;;;;;;;21.80;59.50;;;;;;490779;242;2195;-70
2021/07/15 10:53:55;;;;;;;;;;;21.70;59.50;;;;;;490944;242;1033;-70
2021/07/15 10:55:56;;;;;;;;;;;21.70;59.60;;;;;;490577;241;1198;-70
2021/07/15 10:57:58;;;;;;;;;;;21.80;59.60;;;;;;490603;242;1077;-70
2021/07/15 10:59:59;;;;;;;;;;;21.80;59.50;;;;;;490436;241;1173;-70
2021/07/15 11:02:00;;;;;;;;;;;21.80;59.40;;;;;;490338;238;1197;-70
2021/07/15 11:04:02;;;;;;;;;;;21.80;59.50;;;;;;490369;241;1046;-70
2021/07/15 11:06:03;;;;;;;;;;;21.70;59.40;;;;;;490234;241;1220;-70
2021/07/15 11:08:04;;;;;;;;;;;21.80;59.50;;;;;;490328;241;1144;-70
2021/07/15 11:10:05;;;;;;;;;;;21.80;59.50;;;;;;490216;242;1171;-70
2021/07/15 11:12:07;;;;;;;;;;;21.80;59.50;;;;;;490173;241;2191;-70
2021/07/15 11:14:08;;;;;;;;;;;21.90;59.40;;;;;;490459;241;1078;-70
2021/07/15 11:16:09;;;;;;;;;;;21.80;59.40;;;;;;490284;241;1267;-70
2021/07/15 11:18:12;;;;;;;;;;;21.90;59.40;;;;;;490416;242;1066;-70
2021/07/15 11:20:12;;;;;;;;;;;21.80;59.40;;;;;;490453;237;1288;-70
2021/07/15 11:22:13;;;;;;;;;;;21.80;59.40;;;;;;490361;241;1185;-70
2021/07/15 11:24:15;;;;;;;;;;;21.80;59.40;;;;;;490402;242;1073;-70
2021/07/15 11:26:16;;;;;;;;;;;21.80;59.40;;;;;;490125;241;1260;-70
2021/07/15 11:28:18;;;;;;;;;;;21.80;59.40;;;;;;490380;241;1151;-70
2021/07/15 11:30:20;;;;;;;;;;;21.70;59.60;;;;;;490421;241;1089;-70
2021/07/15 11:32:20;;;;;;;;;;;21.60;60.00;;;;;;490375;237;2188;-70
2021/07/15 11:34:21;;;;;;;;;;;21.40;60.30;;;;;;490441;241;1061;-70
2021/07/15 11:36:23;;;;;;;;;;;21.30;60.70;;;;;;490474;242;1093;-70
2021/07/15 11:38:24;;;;;;;;;;;21.20;61.00;;;;;;490476;242;1141;-70
2021/07/15 11:40:26;;;;;;;;;;;21.20;61.30;;;;;;490519;241;1388;-70
2021/07/15 11:42:27;;;;;;;;;;;21.20;61.40;;;;;;490585;241;1335;-70
2021/07/15 11:44:28;;;;;;;;;;;21.10;61.40;;;;;;490387;241;1052;-70
2021/07/15 11:46:30;;;;;;;;;;;21.10;61.40;;;;;;490203;241;1093;-70
2021/07/15 11:48:31;;;;;;;;;;;21.10;61.60;;;;;;490374;241;1265;-70
2021/07/15 11:50:33;;;;;;;;;;;21.00;61.70;;;;;;490352;241;1159;-70
2021/07/15 11:52:34;;;;;;;;;;;21.00;61.90;;;;;;490799;242;2180;-70
2021/07/15 11:54:36;;;;;;;;;;;20.90;62.00;;;;;;490919;242;859;-70
2021/07/15 11:56:37;;;;;;;;;;;20.90;62.00;;;;;;490839;241;1311;-70